sensor_id;sensor_type;location;lat;lon;timestamp;temperature;humidity
7972;DHT22;4031;49.758;6.120;2023-08-01T00:01:13;16.30;99.90
7972;DHT22;4031;49.758;6.120;2023-08-01T00:03:38;16.30;99.90
7972;DHT22;4031;49.758;6.120;2023-08-01T00:06:04;16.20;99.90
7972;DHT22;4031;49.758;6.120;2023-08-01T00:08:30;16.20;99.90
7972;DHT22;4031;49.758;6.120;2023-08-01T00:10:55;16.20;99.90
7972;DHT22;4031;49.758;6.120;2023-08-01T00:13:21;16.30;99.90
7972;DHT22;4031;49.758;6.120;2023-08-01T00:15:47;16.20;99.90
7972;DHT22;4031;49.758;6.120;2023-08-01T00:18:12;16.20;99.90
7972;DHT22;4031;49.758;6.120;2023-08-01T00:20:38;16.20;99.90
7972;DHT22;4031;49.758;6.120;2023-08-01T00:23:05;16.30;99.90
7972;DHT22;4031;49.758;6.120;2023-08-01T00:25:30;16.20;99.90
7972;DHT22;4031;49.758;6.120;2023-08-01T00:27:56;16.30;99.90
7972;DHT22;4031;49.758;6.120;2023-08-01T00:30:22;16.30;99.90
7972;DHT22;4031;49.758;6.120;2023-08-01T00:32:47;16.30;99.90
7972;DHT22;4031;49.758;6.120;2023-08-01T00:35:13;16.30;99.90
7972;DHT22;4031;49.758;6.120;2023-08-01T00:37:39;16.30;99.90
7972;DHT22;4031;49.758;6.120;2023-08-01T00:40:05;16.30;99.90
7972;DHT22;4031;49.758;6.120;2023-08-01T00:42:31;16.30;99.90
7972;DHT22;4031;49.758;6.120;2023-08-01T00:44:57;16.30;99.90
7972;DHT22;4031;49.758;6.120;2023-08-01T00:47:23;16.40;99.90
7972;DHT22;4031;49.758;6.120;2023-08-01T00:49:50;16.40;99.90
7972;DHT22;4031;49.758;6.120;2023-08-01T00:52:15;16.30;99.90
7972;DHT22;4031;49.758;6.120;2023-08-01T00:54:42;16.40;99.90
7972;DHT22;4031;49.758;6.120;2023-08-01T00:57:08;16.40;99.90
7972;DHT22;4031;49.758;6.120;2023-08-01T00:59:34;16.40;99.90
7972;DHT22;4031;49.758;6.120;2023-08-01T01:02:00;16.40;99.90
7972;DHT22;4031;49.758;6.120;2023-08-01T01:04:27;16.40;99.90
7972;DHT22;4031;49.758;6.120;2023-08-01T01:07:00;16.50;99.90
7972;DHT22;4031;49.758;6.120;2023-08-01T01:09:29;16.50;99.90
7972;DHT22;4031;49.758;6.120;2023-08-01T01:11:57;16.50;99.90
7972;DHT22;4031;49.758;6.120;2023-08-01T01:14:25;16.40;99.90
7972;DHT22;4031;49.758;6.120;2023-08-01T01:16:51;16.50;99.90
7972;DHT22;4031;49.758;6.120;2023-08-01T01:19:17;16.50;99.90
7972;DHT22;4031;49.758;6.120;2023-08-01T01:21:44;16.50;99.90
7972;DHT22;4031;49.758;6.120;2023-08-01T01:24:11;16.50;99.90
7972;DHT22;4031;49.758;6.120;2023-08-01T01:26:40;16.60;99.90
7972;DHT22;4031;49.758;6.120;2023-08-01T01:29:07;16.60;99.90
7972;DHT22;4031;49.758;6.120;2023-08-01T01:31:36;16.60;99.90
7972;DHT22;4031;49.758;6.120;2023-08-01T01:34:03;16.60;99.90
7972;DHT22;4031;49.758;6.120;2023-08-01T01:36:29;16.60;99.90
7972;DHT22;4031;49.758;6.120;2023-08-01T01:38:55;16.60;99.90
7972;DHT22;4031;49.758;6.120;2023-08-01T01:41:21;16.60;99.90
7972;DHT22;4031;49.758;6.120;2023-08-01T01:43:47;16.60;99.90
7972;DHT22;4031;49.758;6.120;2023-08-01T01:46:13;16.60;99.90
7972;DHT22;4031;49.758;6.120;2023-08-01T01:48:39;16.50;99.90
7972;DHT22;4031;49.758;6.120;2023-08-01T01:51:05;16.50;99.90
7972;DHT22;4031;49.758;6.120;2023-08-01T01:53:31;16.40;99.90
7972;DHT22;4031;49.758;6.120;2023-08-01T01:55:56;16.50;99.90
7972;DHT22;4031;49.758;6.120;2023-08-01T01:58:22;16.40;99.90
7972;DHT22;4031;49.758;6.120;2023-08-01T02:00:49;16.40;99.90
7972;DHT22;4031;49.758;6.120;2023-08-01T02:03:14;16.40;99.90
7972;DHT22;4031;49.758;6.120;2023-08-01T02:05:40;16.50;99.90
7972;DHT22;4031;49.758;6.120;2023-08-01T02:08:06;16.40;99.90
7972;DHT22;4031;49.758;6.120;2023-08-01T02:10:32;16.40;99.90
7972;DHT22;4031;49.758;6.120;2023-08-01T02:12:58;16.40;99.90
7972;DHT22;4031;49.758;6.120;2023-08-01T02:15:24;16.40;99.90
7972;DHT22;4031;49.758;6.120;2023-08-01T02:17:50;16.40;99.90
7972;DHT22;4031;49.758;6.120;2023-08-01T02:20:15;16.40;99.90
7972;DHT22;4031;49.758;6.120;2023-08-01T02:22:42;16.40;99.90
7972;DHT22;4031;49.758;6.120;2023-08-01T02:25:07;16.40;99.90
7972;DHT22;4031;49.758;6.120;2023-08-01T02:27:33;16.40;99.90
7972;DHT22;4031;49.758;6.120;2023-08-01T02:29:59;16.40;99.90
7972;DHT22;4031;49.758;6.120;2023-08-01T02:32:25;16.40;99.90
7972;DHT22;4031;49.758;6.120;2023-08-01T02:34:50;16.40;99.90
7972;DHT22;4031;49.758;6.120;2023-08-01T02:37:16;16.40;99.90
7972;DHT22;4031;49.758;6.120;2023-08-01T02:39:42;16.40;99.90
7972;DHT22;4031;49.758;6.120;2023-08-01T02:42:07;16.30;99.90
7972;DHT22;4031;49.758;6.120;2023-08-01T02:44:33;16.40;99.90
7972;DHT22;4031;49.758;6.120;2023-08-01T02:46:59;16.40;99.90
7972;DHT22;4031;49.758;6.120;2023-08-01T02:49:25;16.40;99.90
7972;DHT22;4031;49.758;6.120;2023-08-01T02:51:51;16.30;99.90
7972;DHT22;4031;49.758;6.120;2023-08-01T02:54:16;16.30;99.90
7972;DHT22;4031;49.758;6.120;2023-08-01T02:56:42;16.40;99.90
7972;DHT22;4031;49.758;6.120;2023-08-01T02:59:08;16.30;99.90
7972;DHT22;4031;49.758;6.120;2023-08-01T03:01:38;16.30;99.90
7972;DHT22;4031;49.758;6.120;2023-08-01T03:04:05;16.30;99.90
7972;DHT22;4031;49.758;6.120;2023-08-01T03:06:32;16.30;99.90
7972;DHT22;4031;49.758;6.120;2023-08-01T03:08:58;16.30;99.90
7972;DHT22;4031;49.758;6.120;2023-08-01T03:11:24;16.30;99.90
7972;DHT22;4031;49.758;6.120;2023-08-01T03:13:51;16.30;99.90
7972;DHT22;4031;49.758;6.120;2023-08-01T03:16:17;16.30;99.90
7972;DHT22;4031;49.758;6.120;2023-08-01T03:18:43;16.20;99.90
7972;DHT22;4031;49.758;6.120;2023-08-01T03:21:09;16.20;99.90
7972;DHT22;4031;49.758;6.120;2023-08-01T03:23:35;16.20;99.90
7972;DHT22;4031;49.758;6.120;2023-08-01T03:26:02;16.20;99.90
7972;DHT22;4031;49.758;6.120;2023-08-01T03:28:27;16.20;99.90
7972;DHT22;4031;49.758;6.120;2023-08-01T03:30:53;16.10;99.90
7972;DHT22;4031;49.758;6.120;2023-08-01T03:33:20;16.10;99.90
7972;DHT22;4031;49.758;6.120;2023-08-01T03:35:46;16.20;99.90
7972;DHT22;4031;49.758;6.120;2023-08-01T03:38:12;16.20;99.90
7972;DHT22;4031;49.758;6.120;2023-08-01T03:40:38;16.20;99.90
7972;DHT22;4031;49.758;6.120;2023-08-01T03:43:04;16.20;99.90
7972;DHT22;4031;49.758;6.120;2023-08-01T03:45:31;16.20;99.90
7972;DHT22;4031;49.758;6.120;2023-08-01T03:47:58;16.20;99.90
7972;DHT22;4031;49.758;6.120;2023-08-01T03:50:24;16.20;99.90
7972;DHT22;4031;49.758;6.120;2023-08-01T03:52:49;16.30;99.90
7972;DHT22;4031;49.758;6.120;2023-08-01T03:55:15;16.30;99.90
7972;DHT22;4031;49.758;6.120;2023-08-01T03:57:41;16.30;99.90
7972;DHT22;4031;49.758;6.120;2023-08-01T04:00:09;16.20;99.90
7972;DHT22;4031;49.758;6.120;2023-08-01T04:02:44;16.20;99.90
7972;DHT22;4031;49.758;6.120;2023-08-01T04:05:10;16.20;99.90
7972;DHT22;4031;49.758;6.120;2023-08-01T04:07:36;16.20;99.90
7972;DHT22;4031;49.758;6.120;2023-08-01T04:10:03;16.20;99.90
7972;DHT22;4031;49.758;6.120;2023-08-01T04:12:33;16.20;99.90
7972;DHT22;4031;49.758;6.120;2023-08-01T04:15:00;16.10;99.90
7972;DHT22;4031;49.758;6.120;2023-08-01T04:17:26;16.10;99.90
7972;DHT22;4031;49.758;6.120;2023-08-01T04:19:52;16.10;99.90
7972;DHT22;4031;49.758;6.120;2023-08-01T04:22:18;16.10;99.90
7972;DHT22;4031;49.758;6.120;2023-08-01T04:24:44;16.20;99.90
7972;DHT22;4031;49.758;6.120;2023-08-01T04:27:09;16.20;99.90
7972;DHT22;4031;49.758;6.120;2023-08-01T04:29:35;16.20;99.90
7972;DHT22;4031;49.758;6.120;2023-08-01T04:32:01;16.20;99.90
7972;DHT22;4031;49.758;6.120;2023-08-01T04:34:27;16.20;99.90
7972;DHT22;4031;49.758;6.120;2023-08-01T04:36:52;16.20;99.90
7972;DHT22;4031;49.758;6.120;2023-08-01T04:39:18;16.20;99.90
7972;DHT22;4031;49.758;6.120;2023-08-01T04:41:44;16.30;99.90
7972;DHT22;4031;49.758;6.120;2023-08-01T04:44:09;16.20;99.90
7972;DHT22;4031;49.758;6.120;2023-08-01T04:46:35;16.20;99.90
7972;DHT22;4031;49.758;6.120;2023-08-01T04:49:01;16.20;99.90
7972;DHT22;4031;49.758;6.120;2023-08-01T04:51:27;16.30;99.90
7972;DHT22;4031;49.758;6.120;2023-08-01T04:53:52;16.20;99.90
7972;DHT22;4031;49.758;6.120;2023-08-01T04:56:18;16.20;99.90
7972;DHT22;4031;49.758;6.120;2023-08-01T04:58:44;16.20;99.90
7972;DHT22;4031;49.758;6.120;2023-08-01T05:01:10;16.10;99.90
7972;DHT22;4031;49.758;6.120;2023-08-01T05:03:35;16.10;99.90
7972;DHT22;4031;49.758;6.120;2023-08-01T05:06:07;16.00;99.90
7972;DHT22;4031;49.758;6.120;2023-08-01T05:08:33;15.90;99.90
7972;DHT22;4031;49.758;6.120;2023-08-01T05:10:59;15.80;99.90
7972;DHT22;4031;49.758;6.120;2023-08-01T05:13:25;15.70;99.90
7972;DHT22;4031;49.758;6.120;2023-08-01T05:15:51;15.70;99.90
7972;DHT22;4031;49.758;6.120;2023-08-01T05:18:17;15.60;99.90
7972;DHT22;4031;49.758;6.120;2023-08-01T05:20:43;15.50;99.90
7972;DHT22;4031;49.758;6.120;2023-08-01T05:23:09;15.50;99.90
7972;DHT22;4031;49.758;6.120;2023-08-01T05:25:35;15.50;99.90
7972;DHT22;4031;49.758;6.120;2023-08-01T05:28:00;15.40;99.90
7972;DHT22;4031;49.758;6.120;2023-08-01T05:30:26;15.40;99.90
7972;DHT22;4031;49.758;6.120;2023-08-01T05:32:52;15.40;99.90
7972;DHT22;4031;49.758;6.120;2023-08-01T05:35:19;15.30;99.90
7972;DHT22;4031;49.758;6.120;2023-08-01T05:37:45;15.20;99.90
7972;DHT22;4031;49.758;6.120;2023-08-01T05:40:11;15.20;99.90
7972;DHT22;4031;49.758;6.120;2023-08-01T05:42:37;15.10;99.90
7972;DHT22;4031;49.758;6.120;2023-08-01T05:45:03;15.10;99.90
7972;DHT22;4031;49.758;6.120;2023-08-01T05:47:32;15.00;99.90
7972;DHT22;4031;49.758;6.120;2023-08-01T05:49:58;15.10;99.90
7972;DHT22;4031;49.758;6.120;2023-08-01T05:52:23;15.20;99.90
7972;DHT22;4031;49.758;6.120;2023-08-01T05:54:49;15.20;99.90
7972;DHT22;4031;49.758;6.120;2023-08-01T05:57:15;15.20;99.90
7972;DHT22;4031;49.758;6.120;2023-08-01T05:59:41;15.20;99.90
7972;DHT22;4031;49.758;6.120;2023-08-01T06:02:06;15.20;99.90
7972;DHT22;4031;49.758;6.120;2023-08-01T06:04:32;15.10;99.90
7972;DHT22;4031;49.758;6.120;2023-08-01T06:06:58;15.10;99.90
7972;DHT22;4031;49.758;6.120;2023-08-01T06:09:24;15.10;99.90
7972;DHT22;4031;49.758;6.120;2023-08-01T06:11:50;15.20;99.90
7972;DHT22;4031;49.758;6.120;2023-08-01T06:14:17;15.30;99.90
7972;DHT22;4031;49.758;6.120;2023-08-01T06:16:43;15.50;99.90
7972;DHT22;4031;49.758;6.120;2023-08-01T06:19:08;15.60;99.90
7972;DHT22;4031;49.758;6.120;2023-08-01T06:21:34;15.70;99.90
7972;DHT22;4031;49.758;6.120;2023-08-01T06:24:00;16.00;99.90
7972;DHT22;4031;49.758;6.120;2023-08-01T06:26:27;16.20;99.90
7972;DHT22;4031;49.758;6.120;2023-08-01T06:28:53;16.40;99.90
7972;DHT22;4031;49.758;6.120;2023-08-01T06:31:20;16.50;99.90
7972;DHT22;4031;49.758;6.120;2023-08-01T06:33:46;16.40;99.90
7972;DHT22;4031;49.758;6.120;2023-08-01T06:36:11;16.30;99.90
7972;DHT22;4031;49.758;6.120;2023-08-01T06:38:38;16.20;99.90
7972;DHT22;4031;49.758;6.120;2023-08-01T06:41:04;16.20;99.90
7972;DHT22;4031;49.758;6.120;2023-08-01T06:43:30;16.20;99.90
7972;DHT22;4031;49.758;6.120;2023-08-01T06:45:55;16.20;99.90
7972;DHT22;4031;49.758;6.120;2023-08-01T06:48:21;16.30;99.90
7972;DHT22;4031;49.758;6.120;2023-08-01T06:50:47;16.50;99.90
7972;DHT22;4031;49.758;6.120;2023-08-01T06:53:12;16.60;99.90
7972;DHT22;4031;49.758;6.120;2023-08-01T06:55:38;16.60;99.90
7972;DHT22;4031;49.758;6.120;2023-08-01T06:58:05;16.50;99.90
7972;DHT22;4031;49.758;6.120;2023-08-01T07:00:31;16.50;99.90
7972;DHT22;4031;49.758;6.120;2023-08-01T07:02:57;16.50;99.90
7972;DHT22;4031;49.758;6.120;2023-08-01T07:05:23;16.60;99.90
7972;DHT22;4031;49.758;6.120;2023-08-01T07:07:49;16.60;99.90
7972;DHT22;4031;49.758;6.120;2023-08-01T07:10:14;16.70;99.90
7972;DHT22;4031;49.758;6.120;2023-08-01T07:12:40;16.60;99.90
7972;DHT22;4031;49.758;6.120;2023-08-01T07:15:06;16.60;99.90
7972;DHT22;4031;49.758;6.120;2023-08-01T07:17:33;16.40;99.90
7972;DHT22;4031;49.758;6.120;2023-08-01T07:19:58;16.20;99.90
7972;DHT22;4031;49.758;6.120;2023-08-01T07:22:24;16.00;99.90
7972;DHT22;4031;49.758;6.120;2023-08-01T07:24:54;15.90;99.90
7972;DHT22;4031;49.758;6.120;2023-08-01T07:27:20;15.90;99.90
7972;DHT22;4031;49.758;6.120;2023-08-01T07:29:46;16.00;99.90
7972;DHT22;4031;49.758;6.120;2023-08-01T07:32:12;16.10;99.90
7972;DHT22;4031;49.758;6.120;2023-08-01T07:34:37;16.00;99.90
7972;DHT22;4031;49.758;6.120;2023-08-01T07:37:03;16.00;99.90
7972;DHT22;4031;49.758;6.120;2023-08-01T07:39:29;16.00;99.90
7972;DHT22;4031;49.758;6.120;2023-08-01T07:41:58;16.10;99.90
7972;DHT22;4031;49.758;6.120;2023-08-01T07:44:23;16.40;99.90
7972;DHT22;4031;49.758;6.120;2023-08-01T07:46:49;16.60;99.90
7972;DHT22;4031;49.758;6.120;2023-08-01T07:49:15;16.80;99.90
7972;DHT22;4031;49.758;6.120;2023-08-01T07:51:41;16.90;99.90
7972;DHT22;4031;49.758;6.120;2023-08-01T07:54:07;16.80;99.90
7972;DHT22;4031;49.758;6.120;2023-08-01T07:56:32;17.00;99.90
7972;DHT22;4031;49.758;6.120;2023-08-01T07:58:58;17.30;99.90
7972;DHT22;4031;49.758;6.120;2023-08-01T08:01:24;17.30;99.90
7972;DHT22;4031;49.758;6.120;2023-08-01T08:03:49;17.10;99.90
7972;DHT22;4031;49.758;6.120;2023-08-01T08:06:15;17.00;99.90
7972;DHT22;4031;49.758;6.120;2023-08-01T08:08:41;16.90;99.90
7972;DHT22;4031;49.758;6.120;2023-08-01T08:11:07;16.90;99.90
7972;DHT22;4031;49.758;6.120;2023-08-01T08:13:32;17.30;99.90
7972;DHT22;4031;49.758;6.120;2023-08-01T08:15:58;17.50;99.90
7972;DHT22;4031;49.758;6.120;2023-08-01T08:18:24;17.70;99.90
7972;DHT22;4031;49.758;6.120;2023-08-01T08:20:50;17.90;99.90
7972;DHT22;4031;49.758;6.120;2023-08-01T08:23:16;18.20;99.90
7972;DHT22;4031;49.758;6.120;2023-08-01T08:25:42;18.50;99.90
7972;DHT22;4031;49.758;6.120;2023-08-01T08:28:13;18.70;99.90
7972;DHT22;4031;49.758;6.120;2023-08-01T08:30:39;18.90;99.90
7972;DHT22;4031;49.758;6.120;2023-08-01T08:33:04;19.10;99.90
7972;DHT22;4031;49.758;6.120;2023-08-01T08:35:35;19.10;99.90
7972;DHT22;4031;49.758;6.120;2023-08-01T08:38:02;19.00;99.90
7972;DHT22;4031;49.758;6.120;2023-08-01T08:40:32;19.00;99.90
7972;DHT22;4031;49.758;6.120;2023-08-01T08:43:01;18.90;99.90
7972;DHT22;4031;49.758;6.120;2023-08-01T08:45:34;18.50;99.90
7972;DHT22;4031;49.758;6.120;2023-08-01T08:48:02;17.90;99.90
7972;DHT22;4031;49.758;6.120;2023-08-01T08:50:31;17.90;99.90
7972;DHT22;4031;49.758;6.120;2023-08-01T08:52:59;18.00;99.90
7972;DHT22;4031;49.758;6.120;2023-08-01T08:55:25;18.30;99.90
7972;DHT22;4031;49.758;6.120;2023-08-01T08:57:52;19.00;99.90
7972;DHT22;4031;49.758;6.120;2023-08-01T09:00:19;19.40;99.90
7972;DHT22;4031;49.758;6.120;2023-08-01T09:02:45;20.70;99.90
7972;DHT22;4031;49.758;6.120;2023-08-01T09:05:11;21.80;99.90
7972;DHT22;4031;49.758;6.120;2023-08-01T09:07:42;21.70;99.90
7972;DHT22;4031;49.758;6.120;2023-08-01T09:10:10;21.60;99.90
7972;DHT22;4031;49.758;6.120;2023-08-01T09:12:36;21.70;99.90
7972;DHT22;4031;49.758;6.120;2023-08-01T09:15:02;21.40;99.90
7972;DHT22;4031;49.758;6.120;2023-08-01T09:17:28;21.10;99.90
7972;DHT22;4031;49.758;6.120;2023-08-01T09:20:06;20.90;99.90
7972;DHT22;4031;49.758;6.120;2023-08-01T09:22:46;20.90;99.90
7972;DHT22;4031;49.758;6.120;2023-08-01T09:25:13;20.80;99.90
7972;DHT22;4031;49.758;6.120;2023-08-01T09:27:39;21.70;99.90
7972;DHT22;4031;49.758;6.120;2023-08-01T09:30:10;22.30;99.90
7972;DHT22;4031;49.758;6.120;2023-08-01T09:32:39;22.10;99.90
7972;DHT22;4031;49.758;6.120;2023-08-01T09:35:05;21.20;99.90
7972;DHT22;4031;49.758;6.120;2023-08-01T09:37:43;20.40;99.90
7972;DHT22;4031;49.758;6.120;2023-08-01T09:40:09;20.10;99.90
7972;DHT22;4031;49.758;6.120;2023-08-01T09:42:43;20.40;99.90
7972;DHT22;4031;49.758;6.120;2023-08-01T09:45:13;21.60;99.90
7972;DHT22;4031;49.758;6.120;2023-08-01T09:47:41;22.10;99.90
7972;DHT22;4031;49.758;6.120;2023-08-01T09:50:13;22.00;99.90
7972;DHT22;4031;49.758;6.120;2023-08-01T09:52:46;21.90;99.90
7972;DHT22;4031;49.758;6.120;2023-08-01T09:55:32;21.40;99.90
7972;DHT22;4031;49.758;6.120;2023-08-01T09:57:59;20.90;99.90
7972;DHT22;4031;49.758;6.120;2023-08-01T10:00:26;21.10;99.90
7972;DHT22;4031;49.758;6.120;2023-08-01T10:02:53;22.80;99.90
7972;DHT22;4031;49.758;6.120;2023-08-01T10:05:21;23.80;99.90
7972;DHT22;4031;49.758;6.120;2023-08-01T10:07:48;25.10;99.90
7972;DHT22;4031;49.758;6.120;2023-08-01T10:10:17;26.40;99.90
7972;DHT22;4031;49.758;6.120;2023-08-01T10:12:45;26.00;99.90
7972;DHT22;4031;49.758;6.120;2023-08-01T10:15:14;25.90;99.90
7972;DHT22;4031;49.758;6.120;2023-08-01T10:17:41;26.00;99.90
7972;DHT22;4031;49.758;6.120;2023-08-01T10:20:07;25.40;99.90
7972;DHT22;4031;49.758;6.120;2023-08-01T10:22:33;24.80;99.90
7972;DHT22;4031;49.758;6.120;2023-08-01T10:25:00;24.00;99.90
7972;DHT22;4031;49.758;6.120;2023-08-01T10:27:26;23.40;99.90
7972;DHT22;4031;49.758;6.120;2023-08-01T10:30:03;23.00;99.90
7972;DHT22;4031;49.758;6.120;2023-08-01T10:32:35;24.00;99.90
7972;DHT22;4031;49.758;6.120;2023-08-01T10:35:03;25.40;99.90
7972;DHT22;4031;49.758;6.120;2023-08-01T10:37:45;26.20;99.90
7972;DHT22;4031;49.758;6.120;2023-08-01T10:40:12;25.00;99.90
7972;DHT22;4031;49.758;6.120;2023-08-01T10:42:40;23.90;99.90
7972;DHT22;4031;49.758;6.120;2023-08-01T10:45:08;23.20;99.90
7972;DHT22;4031;49.758;6.120;2023-08-01T10:47:45;22.40;99.90
7972;DHT22;4031;49.758;6.120;2023-08-01T10:50:15;21.80;99.90
7972;DHT22;4031;49.758;6.120;2023-08-01T10:52:41;21.80;99.90
7972;DHT22;4031;49.758;6.120;2023-08-01T10:55:08;21.90;99.90
7972;DHT22;4031;49.758;6.120;2023-08-01T10:57:36;23.30;99.90
7972;DHT22;4031;49.758;6.120;2023-08-01T11:00:06;24.40;99.90
7972;DHT22;4031;49.758;6.120;2023-08-01T11:02:36;25.50;99.90
7972;DHT22;4031;49.758;6.120;2023-08-01T11:05:04;25.50;99.90
7972;DHT22;4031;49.758;6.120;2023-08-01T11:07:31;25.20;99.90
7972;DHT22;4031;49.758;6.120;2023-08-01T11:12:41;25.90;99.90
7972;DHT22;4031;49.758;6.120;2023-08-01T11:15:10;25.60;99.90
7972;DHT22;4031;49.758;6.120;2023-08-01T11:17:38;25.30;99.90
7972;DHT22;4031;49.758;6.120;2023-08-01T11:20:09;24.60;99.90
7972;DHT22;4031;49.758;6.120;2023-08-01T11:22:37;24.30;99.90
7972;DHT22;4031;49.758;6.120;2023-08-01T11:25:04;24.00;99.90
7972;DHT22;4031;49.758;6.120;2023-08-01T11:27:31;24.00;99.90
7972;DHT22;4031;49.758;6.120;2023-08-01T11:29:56;23.90;99.90
7972;DHT22;4031;49.758;6.120;2023-08-01T11:32:33;23.80;99.90
7972;DHT22;4031;49.758;6.120;2023-08-01T11:35:00;23.80;99.90
7972;DHT22;4031;49.758;6.120;2023-08-01T11:37:26;24.00;99.90
7972;DHT22;4031;49.758;6.120;2023-08-01T11:39:52;25.10;99.90
7972;DHT22;4031;49.758;6.120;2023-08-01T11:42:18;25.50;99.90
7972;DHT22;4031;49.758;6.120;2023-08-01T11:44:44;25.60;99.90
7972;DHT22;4031;49.758;6.120;2023-08-01T11:47:12;26.00;99.90
7972;DHT22;4031;49.758;6.120;2023-08-01T11:49:44;26.70;99.90
7972;DHT22;4031;49.758;6.120;2023-08-01T11:52:24;26.20;99.90
7972;DHT22;4031;49.758;6.120;2023-08-01T11:54:51;26.50;99.90
7972;DHT22;4031;49.758;6.120;2023-08-01T11:57:17;26.60;99.90
7972;DHT22;4031;49.758;6.120;2023-08-01T11:59:51;26.50;99.90
7972;DHT22;4031;49.758;6.120;2023-08-01T12:02:25;26.50;99.90
7972;DHT22;4031;49.758;6.120;2023-08-01T12:04:52;26.70;99.90
7972;DHT22;4031;49.758;6.120;2023-08-01T12:07:19;26.10;99.90
7972;DHT22;4031;49.758;6.120;2023-08-01T12:09:59;25.10;99.90
7972;DHT22;4031;49.758;6.120;2023-08-01T12:12:28;25.00;99.90
7972;DHT22;4031;49.758;6.120;2023-08-01T12:14:55;25.30;99.90
7972;DHT22;4031;49.758;6.120;2023-08-01T12:17:22;25.60;99.90
7972;DHT22;4031;49.758;6.120;2023-08-01T12:19:48;25.80;99.90
7972;DHT22;4031;49.758;6.120;2023-08-01T12:22:13;25.80;99.90
7972;DHT22;4031;49.758;6.120;2023-08-01T12:24:40;25.20;99.90
7972;DHT22;4031;49.758;6.120;2023-08-01T12:27:07;25.30;99.90
7972;DHT22;4031;49.758;6.120;2023-08-01T12:29:33;25.30;99.90
7972;DHT22;4031;49.758;6.120;2023-08-01T12:31:59;24.70;99.90
7972;DHT22;4031;49.758;6.120;2023-08-01T12:34:25;23.90;99.90
7972;DHT22;4031;49.758;6.120;2023-08-01T12:36:50;22.90;99.90
7972;DHT22;4031;49.758;6.120;2023-08-01T12:39:16;22.30;99.90
7972;DHT22;4031;49.758;6.120;2023-08-01T12:41:42;22.00;99.90
7972;DHT22;4031;49.758;6.120;2023-08-01T12:44:07;22.00;99.90
7972;DHT22;4031;49.758;6.120;2023-08-01T12:46:33;22.40;99.90
7972;DHT22;4031;49.758;6.120;2023-08-01T12:48:59;22.60;99.90
7972;DHT22;4031;49.758;6.120;2023-08-01T12:51:25;22.20;99.90
7972;DHT22;4031;49.758;6.120;2023-08-01T12:53:50;21.80;99.90
7972;DHT22;4031;49.758;6.120;2023-08-01T12:56:16;21.50;99.90
7972;DHT22;4031;49.758;6.120;2023-08-01T12:58:42;20.90;99.90
7972;DHT22;4031;49.758;6.120;2023-08-01T13:01:07;19.90;99.90
7972;DHT22;4031;49.758;6.120;2023-08-01T13:03:33;19.10;99.90
7972;DHT22;4031;49.758;6.120;2023-08-01T13:05:59;18.90;99.90
7972;DHT22;4031;49.758;6.120;2023-08-01T13:08:25;19.00;99.90
7972;DHT22;4031;49.758;6.120;2023-08-01T13:10:51;19.20;99.90
7972;DHT22;4031;49.758;6.120;2023-08-01T13:13:17;19.60;99.90
7972;DHT22;4031;49.758;6.120;2023-08-01T13:15:43;20.10;99.90
7972;DHT22;4031;49.758;6.120;2023-08-01T13:18:09;20.40;99.90
7972;DHT22;4031;49.758;6.120;2023-08-01T13:20:35;20.60;99.90
7972;DHT22;4031;49.758;6.120;2023-08-01T13:23:02;20.70;99.90
7972;DHT22;4031;49.758;6.120;2023-08-01T13:25:28;21.30;99.90
7972;DHT22;4031;49.758;6.120;2023-08-01T13:27:54;22.20;99.90
7972;DHT22;4031;49.758;6.120;2023-08-01T13:30:20;23.30;99.90
7972;DHT22;4031;49.758;6.120;2023-08-01T13:32:46;24.00;99.90
7972;DHT22;4031;49.758;6.120;2023-08-01T13:35:12;24.20;99.90
7972;DHT22;4031;49.758;6.120;2023-08-01T13:37:38;24.80;99.90
7972;DHT22;4031;49.758;6.120;2023-08-01T13:40:05;25.50;99.90
7972;DHT22;4031;49.758;6.120;2023-08-01T13:42:31;25.70;99.90
7972;DHT22;4031;49.758;6.120;2023-08-01T13:44:58;25.90;99.90
7972;DHT22;4031;49.758;6.120;2023-08-01T13:47:24;25.90;99.90
7972;DHT22;4031;49.758;6.120;2023-08-01T13:49:50;25.90;99.90
7972;DHT22;4031;49.758;6.120;2023-08-01T13:52:16;25.20;99.90
7972;DHT22;4031;49.758;6.120;2023-08-01T13:54:42;24.50;99.90
7972;DHT22;4031;49.758;6.120;2023-08-01T13:57:07;24.10;99.90
7972;DHT22;4031;49.758;6.120;2023-08-01T13:59:33;23.90;99.90
7972;DHT22;4031;49.758;6.120;2023-08-01T14:01:59;23.70;99.90
7972;DHT22;4031;49.758;6.120;2023-08-01T14:04:24;23.90;99.90
7972;DHT22;4031;49.758;6.120;2023-08-01T14:06:50;23.90;99.90
7972;DHT22;4031;49.758;6.120;2023-08-01T14:09:16;23.40;99.90
7972;DHT22;4031;49.758;6.120;2023-08-01T14:11:41;23.00;99.90
7972;DHT22;4031;49.758;6.120;2023-08-01T14:14:07;22.70;99.90
7972;DHT22;4031;49.758;6.120;2023-08-01T14:16:33;22.50;99.90
7972;DHT22;4031;49.758;6.120;2023-08-01T14:18:59;22.60;99.90
7972;DHT22;4031;49.758;6.120;2023-08-01T14:21:25;22.90;99.90
7972;DHT22;4031;49.758;6.120;2023-08-01T14:23:50;23.10;99.90
7972;DHT22;4031;49.758;6.120;2023-08-01T14:26:16;22.70;99.90
7972;DHT22;4031;49.758;6.120;2023-08-01T14:28:42;22.20;99.90
7972;DHT22;4031;49.758;6.120;2023-08-01T14:31:08;21.80;99.90
7972;DHT22;4031;49.758;6.120;2023-08-01T14:33:34;21.50;99.90
7972;DHT22;4031;49.758;6.120;2023-08-01T14:35:59;21.60;99.90
7972;DHT22;4031;49.758;6.120;2023-08-01T14:38:25;21.50;99.90
7972;DHT22;4031;49.758;6.120;2023-08-01T14:40:52;21.40;99.90
7972;DHT22;4031;49.758;6.120;2023-08-01T14:43:19;21.40;99.90
7972;DHT22;4031;49.758;6.120;2023-08-01T14:45:45;21.30;99.90
7972;DHT22;4031;49.758;6.120;2023-08-01T14:48:10;21.00;99.90
7972;DHT22;4031;49.758;6.120;2023-08-01T14:50:37;20.80;99.90
7972;DHT22;4031;49.758;6.120;2023-08-01T14:53:04;20.30;99.90
7972;DHT22;4031;49.758;6.120;2023-08-01T14:55:32;19.80;99.90
7972;DHT22;4031;49.758;6.120;2023-08-01T14:57:58;19.30;99.90
7972;DHT22;4031;49.758;6.120;2023-08-01T15:00:24;18.90;99.90
7972;DHT22;4031;49.758;6.120;2023-08-01T15:02:51;18.70;99.90
7972;DHT22;4031;49.758;6.120;2023-08-01T15:05:16;18.70;99.90
7972;DHT22;4031;49.758;6.120;2023-08-01T15:07:42;18.90;99.90
7972;DHT22;4031;49.758;6.120;2023-08-01T15:10:09;19.30;99.90
7972;DHT22;4031;49.758;6.120;2023-08-01T15:12:34;19.60;99.90
7972;DHT22;4031;49.758;6.120;2023-08-01T15:15:00;19.90;99.90
7972;DHT22;4031;49.758;6.120;2023-08-01T15:17:26;20.20;99.90
7972;DHT22;4031;49.758;6.120;2023-08-01T15:19:52;21.00;99.90
7972;DHT22;4031;49.758;6.120;2023-08-01T15:22:18;21.60;99.90
7972;DHT22;4031;49.758;6.120;2023-08-01T15:24:46;22.20;99.90
7972;DHT22;4031;49.758;6.120;2023-08-01T15:27:12;22.80;99.90
7972;DHT22;4031;49.758;6.120;2023-08-01T15:29:38;23.10;99.90
7972;DHT22;4031;49.758;6.120;2023-08-01T15:32:05;23.20;99.90
7972;DHT22;4031;49.758;6.120;2023-08-01T15:34:31;23.10;99.90
7972;DHT22;4031;49.758;6.120;2023-08-01T15:36:57;22.90;99.90
7972;DHT22;4031;49.758;6.120;2023-08-01T15:39:23;22.50;99.90
7972;DHT22;4031;49.758;6.120;2023-08-01T15:41:48;22.30;99.90
7972;DHT22;4031;49.758;6.120;2023-08-01T15:44:14;22.50;99.90
7972;DHT22;4031;49.758;6.120;2023-08-01T15:46:40;22.30;99.90
7972;DHT22;4031;49.758;6.120;2023-08-01T15:49:06;22.30;99.90
7972;DHT22;4031;49.758;6.120;2023-08-01T15:51:32;22.40;99.90
7972;DHT22;4031;49.758;6.120;2023-08-01T15:53:58;22.40;99.90
7972;DHT22;4031;49.758;6.120;2023-08-01T15:56:24;22.20;99.90
7972;DHT22;4031;49.758;6.120;2023-08-01T15:58:50;22.00;99.90
7972;DHT22;4031;49.758;6.120;2023-08-01T16:01:16;21.90;99.90